Time;durP1;ratioP1;P1;durP2;ratioP2;P2;SDS_P1;SDS_P2;PMS_P1;PMS_P2;Temp;Humidity;BMP_temperature;BMP_pressure;BME280_temperature;BME280_humidity;BME280_pressure;Samples;Min_cycle;Max_cycle;Signal;HPM_P1;HPM_P2
2022/09/19 00:02:26;;;;;;;0.08;0.08;;;10.80;71.40;;;;;;6122347;23;20455;-81
2022/09/19 00:04:53;;;;;;;0.10;0.10;;;10.80;71.50;;;;;;6121724;23;20379;-81
2022/09/19 00:07:21;;;;;;;0.10;0.00;;;10.80;71.20;;;;;;6123773;23;20717;-81
2022/09/19 00:09:48;;;;;;;0.00;0.00;;;10.60;72.30;;;;;;6121792;23;20384;-81
2022/09/19 00:12:14;;;;;;;0.00;0.00;;;10.50;73.20;;;;;;6122255;23;20382;-81
2022/09/19 00:14:41;;;;;;;0.00;0.00;;;10.40;73.40;;;;;;6121377;23;20833;-81
2022/09/19 00:17:09;;;;;;;0.08;0.08;;;10.40;73.60;;;;;;6122391;23;20390;-81
2022/09/19 00:19:37;;;;;;;0.40;0.03;;;10.30;74.60;;;;;;6116366;23;20379;-80
2022/09/19 00:22:04;;;;;;;0.00;0.00;;;10.20;74.20;;;;;;6117263;23;20401;-81
2022/09/19 00:24:46;;;;;;;0.10;0.10;;;10.20;74.00;;;;;;6116797;23;20385;-81
2022/09/19 00:27:19;;;;;;;0.03;0.03;;;10.20;73.80;;;;;;6116930;23;20448;-81
2022/09/19 00:29:46;;;;;;;0.00;0.00;;;10.10;74.70;;;;;;6094410;23;20378;-81
2022/09/19 00:32:15;;;;;;;0.10;0.10;;;10.10;74.40;;;;;;6116626;23;20384;-81
2022/09/19 00:34:45;;;;;;;0.10;0.10;;;10.20;74.00;;;;;;6117028;23;20385;-81
2022/09/19 00:37:12;;;;;;;0.00;0.00;;;10.10;74.00;;;;;;6116454;23;20369;-81
2022/09/19 00:39:39;;;;;;;0.08;0.08;;;10.10;73.60;;;;;;6116786;23;20380;-81
2022/09/19 00:42:15;;;;;;;0.10;0.10;;;10.10;73.60;;;;;;6116629;23;20391;-81
2022/09/19 00:44:42;;;;;;;0.10;0.10;;;10.10;75.00;;;;;;6116805;23;20837;-81
2022/09/19 00:47:14;;;;;;;0.00;0.00;;;9.90;76.10;;;;;;6092250;23;20348;-81
2022/09/19 00:49:49;;;;;;;0.05;0.05;;;9.90;75.30;;;;;;6116990;23;20373;-81
2022/09/19 00:52:31;;;;;;;0.00;0.00;;;10.00;75.90;;;;;;6116659;23;20380;-80
2022/09/19 00:54:59;;;;;;;0.00;0.00;;;9.90;75.70;;;;;;6116562;23;20676;-81
2022/09/19 00:57:49;;;;;;;0.10;0.10;;;9.80;75.60;;;;;;6116917;23;20420;-81
2022/09/19 01:00:16;;;;;;;0.00;0.00;;;9.70;75.60;;;;;;6091994;23;20378;-81
2022/09/19 01:02:43;;;;;;;0.10;0.10;;;9.70;75.80;;;;;;6116435;23;20392;-81
2022/09/19 01:05:11;;;;;;;0.10;0.10;;;9.70;75.70;;;;;;6116766;23;20392;-81
2022/09/19 01:07:51;;;;;;;0.10;0.10;;;9.60;76.20;;;;;;6094095;23;20385;-81
2022/09/19 01:11:02;;;;;;;0.00;0.00;;;9.50;76.20;;;;;;6116523;23;20706;-81
2022/09/19 01:13:38;;;;;;;0.10;0.10;;;9.50;76.20;;;;;;6037316;23;20384;-81
2022/09/19 01:16:20;;;;;;;0.10;0.10;;;9.40;77.10;;;;;;6089189;23;20699;-80
2022/09/19 01:19:05;;;;;;;0.00;0.00;;;9.40;77.00;;;;;;6116825;23;20926;-81
2022/09/19 01:21:40;;;;;;;0.00;0.00;;;9.50;77.20;;;;;;6115996;23;20377;-81
2022/09/19 01:24:25;;;;;;;0.10;0.10;;;9.30;77.50;;;;;;6116858;23;20415;-81
2022/09/19 01:27:23;;;;;;;0.05;0.05;;;9.40;77.70;;;;;;6093405;23;20377;-81
2022/09/19 01:30:16;;;;;;;0.10;0.10;;;9.30;79.30;;;;;;6115967;23;20385;-81
2022/09/19 01:33:10;;;;;;;0.10;0.10;;;9.10;79.20;;;;;;6089627;23;20381;-81
2022/09/19 01:35:41;;;;;;;0.10;0.10;;;9.10;78.50;;;;;;6116256;23;20382;-81
2022/09/19 01:38:12;;;;;;;0.10;0.10;;;9.10;78.60;;;;;;6116773;23;20468;-81
2022/09/19 01:40:41;;;;;;;0.10;0.10;;;9.10;78.40;;;;;;6116186;23;20378;-81
2022/09/19 01:43:14;;;;;;;0.10;0.10;;;9.10;78.10;;;;;;6116604;23;20384;-81
2022/09/19 01:45:42;;;;;;;0.10;0.10;;;9.10;78.60;;;;;;6091738;23;20396;-81
2022/09/19 01:48:49;;;;;;;0.10;0.10;;;9.10;80.50;;;;;;6116805;23;20385;-81
2022/09/19 01:51:35;;;;;;;0.10;0.10;;;9.10;79.60;;;;;;6090563;23;20410;-81
2022/09/19 01:54:10;;;;;;;0.10;0.10;;;9.10;79.10;;;;;;6092896;23;20385;-81
2022/09/19 01:56:52;;;;;;;0.10;0.10;;;9.10;78.20;;;;;;6094399;23;20372;-81
2022/09/19 01:59:51;;;;;;;0.00;0.00;;;9.00;78.10;;;;;;6117784;23;20373;-81
2022/09/19 02:02:42;;;;;;;0.00;0.00;;;8.80;79.20;;;;;;6117749;23;20437;-81
2022/09/19 02:05:13;;;;;;;0.10;0.10;;;8.80;79.10;;;;;;6093722;23;20407;-81
2022/09/19 02:07:56;;;;;;;0.10;0.10;;;8.90;79.80;;;;;;6118542;23;20686;-81
2022/09/19 02:10:29;;;;;;;0.00;0.00;;;8.80;80.00;;;;;;6117904;23;20456;-81
2022/09/19 02:12:59;;;;;;;0.00;0.00;;;8.90;79.80;;;;;;6118462;23;20393;-81
2022/09/19 02:15:29;;;;;;;0.10;0.10;;;8.70;80.40;;;;;;6117668;23;20380;-81
2022/09/19 02:18:09;;;;;;;0.10;0.10;;;8.70;80.70;;;;;;6118240;23;20404;-81
2022/09/19 02:20:40;;;;;;;0.10;0.10;;;8.60;81.30;;;;;;6117710;23;20374;-81
2022/09/19 02:23:18;;;;;;;0.10;0.10;;;8.60;81.60;;;;;;6116603;23;20385;-80
2022/09/19 02:25:47;;;;;;;0.05;0.05;;;8.60;81.20;;;;;;6118352;23;20373;-80
2022/09/19 02:28:18;;;;;;;0.00;0.00;;;8.60;80.90;;;;;;6093325;23;20373;-80
2022/09/19 02:30:46;;;;;;;0.10;0.10;;;8.70;81.20;;;;;;6118397;23;20400;-80
2022/09/19 02:33:13;;;;;;;0.10;0.10;;;8.70;80.90;;;;;;6117229;23;20381;-80
2022/09/19 02:35:50;;;;;;;0.00;0.00;;;8.70;80.60;;;;;;6117954;23;20384;-82
2022/09/19 02:38:30;;;;;;;0.10;0.10;;;8.70;81.20;;;;;;6117428;23;20948;-80
2022/09/19 02:41:06;;;;;;;0.00;0.00;;;8.70;80.80;;;;;;6117886;23;20452;-81
2022/09/19 02:43:46;;;;;;;0.10;0.10;;;8.70;79.90;;;;;;6117381;23;20773;-81
2022/09/19 02:46:26;;;;;;;0.10;0.10;;;8.70;79.30;;;;;;6117228;23;20460;-80
2022/09/19 02:48:59;;;;;;;0.10;0.10;;;8.50;79.40;;;;;;6118252;23;20384;-79
2022/09/19 02:51:40;;;;;;;0.10;0.10;;;8.50;79.30;;;;;;6117280;23;20452;-77
2022/09/19 02:54:18;;;;;;;0.03;0.03;;;8.50;80.00;;;;;;6117396;23;20419;-78
2022/09/19 02:56:48;;;;;;;0.10;0.10;;;8.50;79.90;;;;;;6092344;23;20845;-78
2022/09/19 02:59:25;;;;;;;0.10;0.10;;;8.40;80.80;;;;;;6117253;23;20464;-78
2022/09/19 03:01:58;;;;;;;0.10;0.10;;;8.40;80.60;;;;;;6093841;23;20382;-78
2022/09/19 03:04:33;;;;;;;0.10;0.10;;;8.40;80.40;;;;;;6116910;23;20433;-78
2022/09/19 03:07:00;;;;;;;0.10;0.10;;;8.30;80.30;;;;;;6092359;23;20444;-78
2022/09/19 03:09:30;;;;;;;0.10;0.10;;;8.30;79.70;;;;;;6094525;23;20377;-78
2022/09/19 03:12:18;;;;;;;0.10;0.10;;;8.20;80.80;;;;;;6116238;23;20384;-78
2022/09/19 03:14:47;;;;;;;0.10;0.10;;;8.10;82.40;;;;;;6116329;23;20373;-78
2022/09/19 03:17:17;;;;;;;0.10;0.10;;;8.10;82.80;;;;;;6117516;23;20376;-78
2022/09/19 03:19:47;;;;;;;0.10;0.10;;;8.20;82.90;;;;;;6116364;23;20384;-78
2022/09/19 03:22:14;;;;;;;0.10;0.10;;;8.20;82.40;;;;;;6117562;23;20373;-78
2022/09/19 03:24:42;;;;;;;0.00;0.00;;;8.20;81.70;;;;;;6116132;23;20378;-78
2022/09/19 03:27:09;;;;;;;0.10;0.10;;;8.20;81.50;;;;;;6117230;23;20718;-78
2022/09/19 03:29:36;;;;;;;0.10;0.10;;;8.20;81.40;;;;;;6116935;23;20399;-78
2022/09/19 03:32:03;;;;;;;0.10;0.10;;;8.10;81.40;;;;;;6104233;23;20366;-78
2022/09/19 03:34:32;;;;;;;0.10;0.10;;;8.20;81.50;;;;;;6093784;23;20450;-78
2022/09/19 03:36:59;;;;;;;0.10;0.10;;;8.20;81.80;;;;;;6115912;23;20437;-78
2022/09/19 03:39:26;;;;;;;0.10;0.10;;;8.20;81.40;;;;;;6116068;23;20369;-78
2022/09/19 03:41:54;;;;;;;0.10;0.10;;;8.20;80.80;;;;;;6115746;23;20381;-78
2022/09/19 03:44:21;;;;;;;0.10;0.10;;;8.10;80.80;;;;;;6116546;23;20382;-78
2022/09/19 03:46:48;;;;;;;0.10;0.10;;;8.10;81.90;;;;;;6093196;23;20852;-78
2022/09/19 03:49:16;;;;;;;0.10;0.10;;;8.00;82.20;;;;;;6093812;23;20385;-78
2022/09/19 03:51:46;;;;;;;0.10;0.10;;;8.00;82.70;;;;;;6091640;23;20379;-78
2022/09/19 03:54:13;;;;;;;0.10;0.10;;;8.00;83.10;;;;;;6116841;23;20381;-78
2022/09/19 03:56:40;;;;;;;0.10;0.10;;;7.90;83.40;;;;;;6093101;23;20449;-78
2022/09/19 03:59:07;;;;;;;0.10;0.10;;;8.00;83.90;;;;;;6117014;23;20385;-78
2022/09/19 04:01:34;;;;;;;0.10;0.10;;;8.00;83.20;;;;;;6117224;23;20377;-78
2022/09/19 04:04:01;;;;;;;0.10;0.10;;;8.00;82.90;;;;;;6115873;23;20370;-78
2022/09/19 04:06:28;;;;;;;0.10;0.10;;;8.10;83.50;;;;;;6093670;23;20388;-78
2022/09/19 04:08:55;;;;;;;0.10;0.10;;;7.90;84.90;;;;;;6091373;23;20444;-78
2022/09/19 04:11:22;;;;;;;0.00;0.00;;;7.90;84.50;;;;;;6116507;23;20452;-78
2022/09/19 04:13:50;;;;;;;0.00;0.00;;;7.90;84.50;;;;;;6115515;23;20489;-78
2022/09/19 04:16:17;;;;;;;0.10;0.10;;;8.00;84.20;;;;;;6092308;23;20413;-78
2022/09/19 04:18:50;;;;;;;0.08;0.08;;;8.00;84.10;;;;;;6115496;23;20438;-78
2022/09/19 04:21:17;;;;;;;0.10;0.10;;;8.00;85.00;;;;;;6093826;23;20445;-78
2022/09/19 04:23:45;;;;;;;0.10;0.10;;;8.00;85.60;;;;;;6115664;23;20449;-78
2022/09/19 04:26:12;;;;;;;0.50;0.10;;;8.10;86.70;;;;;;6093578;23;20384;-78
2022/09/19 04:28:40;;;;;;;0.10;0.10;;;8.00;85.60;;;;;;6116128;23;20702;-78
2022/09/19 04:31:09;;;;;;;0.10;0.10;;;8.00;85.20;;;;;;6115737;23;20578;-77
2022/09/19 04:33:36;;;;;;;0.10;0.10;;;8.00;84.40;;;;;;6116329;23;20441;-78
2022/09/19 04:36:05;;;;;;;0.10;0.10;;;8.00;83.90;;;;;;6115540;23;20373;-78
2022/09/19 04:38:33;;;;;;;0.10;0.10;;;8.00;83.90;;;;;;6093666;23;20389;-78
2022/09/19 04:41:01;;;;;;;0.10;0.10;;;8.00;83.70;;;;;;6093156;23;20382;-78
2022/09/19 04:43:29;;;;;;;0.10;0.10;;;7.70;85.40;;;;;;6093898;23;20706;-78
2022/09/19 04:45:56;;;;;;;0.10;0.10;;;7.70;86.20;;;;;;6115280;23;20405;-78
2022/09/19 04:48:24;;;;;;;0.10;0.10;;;7.60;87.00;;;;;;6116209;23;20409;-78
2022/09/19 04:50:53;;;;;;;0.10;0.10;;;7.70;87.10;;;;;;6092616;23;20444;-78
2022/09/19 04:53:23;;;;;;;0.10;0.10;;;7.60;86.90;;;;;;6091855;23;20390;-78
2022/09/19 04:55:52;;;;;;;0.10;0.10;;;7.70;86.10;;;;;;6115135;23;20448;-78
2022/09/19 04:58:20;;;;;;;0.10;0.10;;;7.70;85.50;;;;;;6093169;23;20705;-78
2022/09/19 05:00:53;;;;;;;0.10;0.10;;;7.70;85.00;;;;;;6092325;23;20392;-78
2022/09/19 05:03:23;;;;;;;0.10;0.10;;;7.70;84.70;;;;;;6093288;23;20468;-78
2022/09/19 05:05:51;;;;;;;0.00;0.00;;;7.70;85.40;;;;;;6092628;23;20404;-78
2022/09/19 05:08:24;;;;;;;0.10;0.10;;;7.70;85.30;;;;;;6116463;23;20453;-78
2022/09/19 05:10:54;;;;;;;0.10;0.10;;;7.70;85.30;;;;;;6090692;23;20387;-78
2022/09/19 05:13:23;;;;;;;0.10;0.10;;;7.50;85.00;;;;;;6116076;23;20766;-78
2022/09/19 05:15:51;;;;;;;0.10;0.10;;;7.60;84.50;;;;;;6114703;23;20383;-78
2022/09/19 05:18:22;;;;;;;0.10;0.10;;;7.50;86.90;;;;;;6115597;23;20373;-78
2022/09/19 05:20:52;;;;;;;0.10;0.10;;;7.40;86.90;;;;;;6115236;23;20776;-76
2022/09/19 05:23:23;;;;;;;0.10;0.10;;;7.50;86.80;;;;;;6093436;23;20461;-78
2022/09/19 05:25:53;;;;;;;0.10;0.10;;;7.50;87.30;;;;;;6114899;23;20482;-78
2022/09/19 05:28:23;;;;;;;0.10;0.10;;;7.40;87.40;;;;;;6116327;23;20377;-78
2022/09/19 05:30:54;;;;;;;0.10;0.10;;;7.40;87.90;;;;;;6117156;23;20743;-78
2022/09/19 05:33:26;;;;;;;0.10;0.10;;;7.30;88.30;;;;;;6094943;23;20377;-78
2022/09/19 05:35:55;;;;;;;0.10;0.10;;;7.40;88.60;;;;;;6116928;23;20377;-78
2022/09/19 05:38:23;;;;;;;0.10;0.10;;;7.40;88.10;;;;;;6118257;23;20702;-78
2022/09/19 05:40:52;;;;;;;0.10;0.10;;;7.50;87.50;;;;;;6117200;23;20397;-78
2022/09/19 05:43:19;;;;;;;0.10;0.10;;;7.50;87.90;;;;;;6117845;23;20445;-78
2022/09/19 05:45:46;;;;;;;0.20;0.10;;;7.50;88.80;;;;;;6117163;23;20381;-78
2022/09/19 05:48:14;;;;;;;0.10;0.10;;;7.50;88.60;;;;;;6091990;23;20389;-78
2022/09/19 05:50:43;;;;;;;0.10;0.10;;;7.60;88.60;;;;;;6116346;23;20853;-78
2022/09/19 05:55:56;;;;;;;0.10;0.10;;;7.70;87.30;;;;;;6094080;23;20377;-78
2022/09/19 05:58:24;;;;;;;0.10;0.10;;;7.80;87.40;;;;;;6117693;23;20795;-78
2022/09/19 06:00:52;;;;;;;0.10;0.10;;;7.90;87.40;;;;;;6116161;23;20771;-78
2022/09/19 06:03:20;;;;;;;0.10;0.10;;;7.90;88.40;;;;;;6092722;23;20849;-78
2022/09/19 06:05:50;;;;;;;0.10;0.10;;;7.90;88.90;;;;;;6093939;23;20385;-78
2022/09/19 06:08:22;;;;;;;0.10;0.10;;;7.90;90.40;;;;;;6093584;23;20372;-78
2022/09/19 06:10:49;;;;;;;0.10;0.10;;;8.00;90.60;;;;;;6116785;23;20396;-78
2022/09/19 06:13:19;;;;;;;0.10;0.10;;;8.00;90.40;;;;;;6116127;23;20381;-78
2022/09/19 06:15:46;;;;;;;0.10;0.10;;;8.10;90.40;;;;;;6093277;23;20854;-78
2022/09/19 06:18:14;;;;;;;0.10;0.10;;;8.30;90.30;;;;;;6116510;23;20862;-78
2022/09/19 06:20:41;;;;;;;0.10;0.10;;;8.40;90.00;;;;;;6093025;23;20381;-78
2022/09/19 06:23:10;;;;;;;0.10;0.10;;;8.50;90.00;;;;;;6117154;23;20381;-78
2022/09/19 06:25:38;;;;;;;0.10;0.10;;;8.60;90.10;;;;;;6093041;23;20381;-78
2022/09/19 06:28:10;;;;;;;0.10;0.10;;;8.80;90.20;;;;;;6093870;23;20452;-78
2022/09/19 06:30:38;;;;;;;0.10;0.10;;;8.80;89.70;;;;;;6094507;23;20365;-78
2022/09/19 06:33:06;;;;;;;0.10;0.10;;;8.90;89.10;;;;;;6116446;23;20405;-78
2022/09/19 06:35:33;;;;;;;0.30;0.10;;;9.00;89.40;;;;;;6117270;23;20377;-78
2022/09/19 06:38:03;;;;;;;0.10;0.10;;;9.20;88.70;;;;;;6117051;23;20445;-78
2022/09/19 06:40:30;;;;;;;0.10;0.10;;;9.30;88.00;;;;;;6093306;23;20845;-78
2022/09/19 06:43:02;;;;;;;0.10;0.10;;;9.40;86.90;;;;;;6116782;23;20370;-78
2022/09/19 06:45:31;;;;;;;0.05;0.05;;;9.60;86.10;;;;;;6117635;23;20390;-78
2022/09/19 06:47:59;;;;;;;0.10;0.10;;;9.80;85.60;;;;;;6116896;23;20413;-78
2022/09/19 06:50:27;;;;;;;0.10;0.10;;;9.90;85.30;;;;;;6117588;23;20393;-78
2022/09/19 06:52:55;;;;;;;0.10;0.10;;;10.10;84.40;;;;;;6117778;23;20766;-78
2022/09/19 06:55:25;;;;;;;0.10;0.10;;;10.20;84.10;;;;;;6092648;23;20373;-78
2022/09/19 06:57:58;;;;;;;0.10;0.10;;;10.40;83.50;;;;;;6094349;23;20706;-78
2022/09/19 07:00:31;;;;;;;0.10;0.10;;;10.60;82.80;;;;;;6116336;23;20366;-78
2022/09/19 07:03:00;;;;;;;0.40;0.10;;;10.80;84.40;;;;;;6094652;23;20407;-79
2022/09/19 07:05:30;;;;;;;0.10;0.10;;;10.90;85.50;;;;;;6116714;23;20445;-78
2022/09/19 07:07:57;;;;;;;0.00;0.00;;;11.10;85.80;;;;;;6116865;23;20718;-78
2022/09/19 07:10:26;;;;;;;0.10;0.10;;;11.20;84.90;;;;;;6116426;23;20373;-78
2022/09/19 07:13:02;;;;;;;0.10;0.10;;;11.40;84.50;;;;;;6117284;23;20434;-78
2022/09/19 07:15:31;;;;;;;0.03;0.03;;;11.60;83.90;;;;;;6094033;23;20398;-78
2022/09/19 07:17:59;;;;;;;0.10;0.10;;;11.70;82.30;;;;;;6094329;23;20376;-78
2022/09/19 07:20:27;;;;;;;0.00;0.00;;;11.90;80.40;;;;;;6093604;23;20369;-78
2022/09/19 07:23:18;;;;;;;0.10;0.10;;;12.10;77.50;;;;;;6116943;23;20396;-78
2022/09/19 07:25:46;;;;;;;0.00;0.00;;;12.20;75.20;;;;;;6092405;23;20818;-78
2022/09/19 07:28:15;;;;;;;0.10;0.00;;;12.40;74.90;;;;;;6116939;23;20822;-78
2022/09/19 07:30:45;;;;;;;0.00;0.00;;;12.60;74.70;;;;;;6115960;23;20382;-78
2022/09/19 07:33:21;;;;;;;0.10;0.10;;;12.90;73.90;;;;;;6115379;23;20436;-78
2022/09/19 07:35:48;;;;;;;0.10;0.10;;;13.30;71.50;;;;;;6116332;23;20734;-78
2022/09/19 07:38:17;;;;;;;0.05;0.00;;;13.70;71.30;;;;;;6093976;23;20409;-78
2022/09/19 07:40:44;;;;;;;0.10;0.10;;;14.10;71.70;;;;;;6116085;23;20378;-78
2022/09/19 07:43:13;;;;;;;0.10;0.10;;;14.60;65.80;;;;;;6116756;23;20449;-78
2022/09/19 07:45:48;;;;;;;0.10;0.00;;;14.90;65.60;;;;;;6114870;23;20370;-78
2022/09/19 07:48:15;;;;;;;0.20;0.10;;;15.10;64.20;;;;;;6115697;23;20452;-78
2022/09/19 07:50:43;;;;;;;0.10;0.00;;;15.50;63.00;;;;;;6115719;23;20377;-78
2022/09/19 07:53:23;;;;;;;0.00;0.00;;;15.70;61.40;;;;;;6090724;23;20747;-78
2022/09/19 07:55:52;;;;;;;0.00;0.00;;;15.90;58.90;;;;;;6092296;23;20470;-78
2022/09/19 07:58:21;;;;;;;0.00;0.00;;;16.00;57.50;;;;;;6116404;23;20406;-78
2022/09/19 08:00:49;;;;;;;0.13;0.00;;;16.40;57.20;;;;;;6114811;23;20396;-78
2022/09/19 08:03:18;;;;;;;0.40;0.00;;;16.70;55.80;;;;;;6116512;23;20758;-79
2022/09/19 08:05:50;;;;;;;0.10;0.00;;;16.90;56.80;;;;;;6091436;23;20458;-78
2022/09/19 08:08:18;;;;;;;0.00;0.00;;;17.20;56.40;;;;;;6114787;23;20452;-78
2022/09/19 08:10:45;;;;;;;0.05;0.00;;;17.50;53.80;;;;;;6113055;23;20432;-78
2022/09/19 08:13:17;;;;;;;0.10;0.00;;;17.70;53.60;;;;;;6115877;23;20409;-78
2022/09/19 08:15:45;;;;;;;0.00;0.00;;;18.00;51.90;;;;;;6115620;23;20754;-78
2022/09/19 08:18:19;;;;;;;0.00;0.00;;;18.30;52.70;;;;;;6092300;23;20444;-78
2022/09/19 08:20:48;;;;;;;0.00;0.00;;;18.60;51.00;;;;;;6115581;23;20885;-78
2022/09/19 08:23:18;;;;;;;0.10;0.00;;;18.90;51.00;;;;;;6093262;23;20379;-78
2022/09/19 08:25:46;;;;;;;0.00;0.00;;;19.10;52.50;;;;;;6115613;23;20699;-78
2022/09/19 08:28:18;;;;;;;0.00;0.00;;;19.30;51.10;;;;;;6116224;23;20385;-79
2022/09/19 08:30:45;;;;;;;0.00;0.00;;;19.50;49.80;;;;;;6092972;23;20451;-78
2022/09/19 08:33:12;;;;;;;0.00;0.00;;;19.80;50.30;;;;;;6113725;23;20373;-78
2022/09/19 08:35:41;;;;;;;0.00;0.00;;;20.00;48.10;;;;;;6115110;23;20719;-78
2022/09/19 08:38:13;;;;;;;0.00;0.00;;;20.30;45.70;;;;;;6116322;23;20429;-78
2022/09/19 08:40:40;;;;;;;0.03;0.00;;;20.60;43.90;;;;;;6113978;23;20386;-78
2022/09/19 08:43:12;;;;;;;0.00;0.00;;;20.90;43.40;;;;;;6091750;23;20385;-78
2022/09/19 08:46:04;;;;;;;0.00;0.00;;;21.00;42.00;;;;;;6092134;23;20404;-78
2022/09/19 08:48:52;;;;;;;0.00;0.00;;;21.30;37.00;;;;;;6091188;23;20373;-78
2022/09/19 08:51:59;;;;;;;0.00;0.00;;;21.40;37.20;;;;;;6092082;23;20464;-78
2022/09/19 08:54:44;;;;;;;0.00;0.00;;;21.60;37.30;;;;;;6113879;23;20406;-77
2022/09/19 08:57:26;;;;;;;0.00;0.00;;;21.80;36.10;;;;;;6115470;23;20377;-77
2022/09/19 09:00:02;;;;;;;0.00;0.00;;;21.90;34.30;;;;;;6114738;23;20396;-76
2022/09/19 09:02:53;;;;;;;0.00;0.00;;;21.90;31.90;;;;;;6092168;23;20453;-77
2022/09/19 09:05:59;;;;;;;0.08;0.00;;;22.00;34.10;;;;;;6092821;23;20735;-78
2022/09/19 09:08:51;;;;;;;0.00;0.00;;;22.20;33.00;;;;;;6115050;23;20395;-77
2022/09/19 09:11:38;;;;;;;0.10;0.00;;;22.40;33.50;;;;;;6114627;23;20465;-78
2022/09/19 09:14:23;;;;;;;0.00;0.00;;;22.60;33.40;;;;;;6115282;23;20393;-78
2022/09/19 09:16:49;;;;;;;0.07;0.00;;;22.80;32.70;;;;;;6091118;23;20791;-77
2022/09/19 09:19:31;;;;;;;0.00;0.00;;;23.10;33.50;;;;;;6093050;23;20461;-77
2022/09/19 09:22:36;;;;;;;0.32;0.00;;;23.20;29.80;;;;;;6089009;23;20440;-77
2022/09/19 09:25:30;;;;;;;0.00;0.00;;;23.50;30.00;;;;;;6114954;23;20373;-77
2022/09/19 09:28:18;;;;;;;0.00;0.00;;;23.60;28.60;;;;;;6089865;23;20433;-77
2022/09/19 09:30:49;;;;;;;0.00;0.00;;;23.50;27.00;;;;;;6091982;23;20369;-78
2022/09/19 09:33:23;;;;;;;0.00;0.00;;;23.20;25.80;;;;;;6114795;23;20444;-77
2022/09/19 09:36:11;;;;;;;0.00;0.00;;;23.50;26.20;;;;;;6114531;23;20457;-78
2022/09/19 09:38:51;;;;;;;0.00;0.00;;;23.20;25.70;;;;;;6090386;23;20783;-79
2022/09/19 09:41:45;;;;;;;0.00;0.00;;;23.30;25.70;;;;;;6114234;23;20389;-78
2022/09/19 09:44:15;;;;;;;0.00;0.00;;;23.40;26.20;;;;;;6090031;23;20428;-78
2022/09/19 09:46:46;;;;;;;0.00;0.00;;;23.30;25.50;;;;;;6090850;23;20922;-78
2022/09/19 09:49:21;;;;;;;0.00;0.00;;;23.30;26.10;;;;;;6091104;23;20416;-78
2022/09/19 09:52:00;;;;;;;0.00;0.00;;;23.70;25.00;;;;;;6113751;23;20433;-79
2022/09/19 09:58:10;;;;;;;0.00;0.00;;;24.10;26.20;;;;;;6090518;23;20377;-79
2022/09/19 10:04:06;;;;;;;0.00;0.00;;;24.50;24.70;;;;;;6092781;23;20393;-78
2022/09/19 10:06:46;;;;;;;0.00;0.00;;;24.70;25.60;;;;;;6115462;23;20392;-77
2022/09/19 10:09:25;;;;;;;0.00;0.00;;;24.80;24.90;;;;;;6117202;23;20714;-78
2022/09/19 10:12:06;;;;;;;0.00;0.00;;;24.60;24.20;;;;;;6115351;23;20444;-78
2022/09/19 10:14:58;;;;;;;0.00;0.00;;;24.40;24.50;;;;;;6092095;23;20834;-78
2022/09/19 10:17:37;;;;;;;0.00;0.00;;;24.50;25.00;;;;;;6115467;23;20385;-78
2022/09/19 10:20:12;;;;;;;0.00;0.00;;;24.50;24.30;;;;;;6094590;23;20797;-78
2022/09/19 10:22:39;;;;;;;0.00;0.00;;;24.70;25.00;;;;;;6116246;23;20408;-78
2022/09/19 10:25:14;;;;;;;0.00;0.00;;;24.70;24.10;;;;;;6117261;23;20862;-78
2022/09/19 10:27:43;;;;;;;0.00;0.00;;;24.50;23.40;;;;;;6093448;23;20464;-78
2022/09/19 10:30:24;;;;;;;0.00;0.00;;;23.90;23.40;;;;;;6117386;23;20741;-78
2022/09/19 10:32:54;;;;;;;0.00;0.00;;;24.20;24.90;;;;;;6115908;23;20395;-78
2022/09/19 10:35:36;;;;;;;0.10;0.00;;;24.60;23.70;;;;;;6117158;23;20389;-78
2022/09/19 10:38:13;;;;;;;0.00;0.00;;;24.70;24.30;;;;;;6092328;23;20370;-78
2022/09/19 10:40:58;;;;;;;0.00;0.00;;;25.10;23.90;;;;;;6116136;23;20381;-78
2022/09/19 10:43:37;;;;;;;0.00;0.00;;;25.50;24.80;;;;;;6117049;23;20711;-78
2022/09/19 10:46:07;;;;;;;0.00;0.00;;;25.70;24.20;;;;;;6093863;23;20400;-78
2022/09/19 10:48:36;;;;;;;0.00;0.00;;;24.90;22.60;;;;;;6117026;23;20785;-78
2022/09/19 10:51:11;;;;;;;0.00;0.00;;;24.70;24.00;;;;;;6116475;23;20377;-78
2022/09/19 10:53:42;;;;;;;0.00;0.00;;;24.80;24.70;;;;;;6117128;23;20464;-78
2022/09/19 10:56:23;;;;;;;0.00;0.00;;;24.90;23.90;;;;;;6116379;23;20401;-78
2022/09/19 10:59:03;;;;;;;0.00;0.00;;;25.00;24.60;;;;;;6093305;23;20889;-78
2022/09/19 11:01:30;;;;;;;0.00;0.00;;;25.20;24.50;;;;;;6094576;23;20762;-78
2022/09/19 11:04:11;;;;;;;0.10;0.00;;;25.40;24.70;;;;;;6116229;23;20389;-78
2022/09/19 11:06:57;;;;;;;0.00;0.00;;;25.30;24.30;;;;;;6092713;23;20408;-78
2022/09/19 11:09:36;;;;;;;0.00;0.00;;;25.20;26.10;;;;;;6092574;23;20373;-78
2022/09/19 11:12:11;;;;;;;0.00;0.00;;;25.60;26.00;;;;;;6116193;23;20461;-78
2022/09/19 11:14:41;;;;;;;0.10;0.00;;;25.90;24.70;;;;;;6116379;23;20453;-78
2022/09/19 11:17:11;;;;;;;0.00;0.00;;;26.00;24.40;;;;;;6116271;23;20377;-79
2022/09/19 11:20:16;;;;;;;0.00;0.00;;;26.20;23.80;;;;;;6093850;23;20405;-78
2022/09/19 11:23:20;;;;;;;0.00;0.00;;;26.40;25.10;;;;;;6091791;23;20381;-79
2022/09/19 11:26:03;;;;;;;0.00;0.00;;;26.50;24.50;;;;;;6091619;23;20404;-78
2022/09/19 11:29:14;;;;;;;0.10;0.00;;;26.50;23.30;;;;;;6092187;23;20457;-78
2022/09/19 11:32:10;;;;;;;0.00;0.00;;;26.30;22.80;;;;;;6062114;23;20375;-78
2022/09/19 11:35:31;;;;;;;0.00;0.00;;;26.10;24.10;;;;;;6091968;23;20715;-79
2022/09/19 11:38:34;;;;;;;0.00;0.00;;;26.00;22.90;;;;;;6116300;23;20382;-79
2022/09/19 11:41:42;;;;;;;0.00;0.00;;;25.30;21.60;;;;;;6092248;23;20381;-78
2022/09/19 11:44:22;;;;;;;0.00;0.00;;;25.60;22.90;;;;;;6115807;23;20457;-78
2022/09/19 11:47:16;;;;;;;0.00;0.00;;;25.80;22.60;;;;;;6092331;23;20390;-78
2022/09/19 11:50:10;;;;;;;0.10;0.00;;;26.10;22.20;;;;;;6093232;23;20437;-78
2022/09/19 11:52:37;;;;;;;0.00;0.00;;;26.60;22.90;;;;;;6115514;23;20404;-78
2022/09/19 11:55:09;;;;;;;0.00;0.00;;;26.90;21.70;;;;;;6092048;23;20387;-80
2022/09/19 11:58:21;;;;;;;0.00;0.00;;;26.80;21.70;;;;;;6090948;23;20452;-78
2022/09/19 12:01:08;;;;;;;0.00;0.00;;;26.60;20.60;;;;;;6092636;23;20846;-79
2022/09/19 12:03:47;;;;;;;0.00;0.00;;;26.70;21.10;;;;;;6091027;23;20768;-79
2022/09/19 12:06:41;;;;;;;0.00;0.00;;;26.60;21.30;;;;;;6116133;23;20389;-78
2022/09/19 12:09:19;;;;;;;0.00;0.00;;;26.50;20.60;;;;;;6091489;23;20744;-78
2022/09/19 12:12:11;;;;;;;0.00;0.00;;;26.60;21.00;;;;;;6092635;23;20718;-78
2022/09/19 12:14:52;;;;;;;0.00;0.00;;;26.50;20.30;;;;;;6115722;23;20460;-79
2022/09/19 12:17:26;;;;;;;0.00;0.00;;;26.40;21.20;;;;;;6115659;23;20374;-78
2022/09/19 12:20:23;;;;;;;0.00;0.00;;;26.50;20.30;;;;;;6093300;23;20772;-78
2022/09/19 12:26:00;;;;;;;0.00;0.00;;;27.10;22.10;;;;;;6092681;23;20881;-78
2022/09/19 12:28:33;;;;;;;0.00;0.00;;;27.20;20.40;;;;;;6116002;23;20465;-78
2022/09/19 12:31:04;;;;;;;0.00;0.00;;;27.20;20.60;;;;;;6091740;23;20700;-78
2022/09/19 12:33:46;;;;;;;0.10;0.00;;;26.60;20.60;;;;;;6116124;23;20369;-79
2022/09/19 12:36:36;;;;;;;0.00;0.00;;;26.40;21.70;;;;;;6089801;23;20384;-79
2022/09/19 12:39:22;;;;;;;0.00;0.00;;;26.60;21.00;;;;;;6118093;23;20710;-79
2022/09/19 12:42:01;;;;;;;0.10;0.00;;;26.80;21.20;;;;;;6117672;23;20714;-79
2022/09/19 12:44:52;;;;;;;0.00;0.00;;;26.90;22.20;;;;;;6121472;23;20507;-81
2022/09/19 12:47:54;;;;;;;0.00;0.00;;;27.40;21.20;;;;;;6117419;23;20385;-80
2022/09/19 12:50:46;;;;;;;0.00;0.00;;;27.30;21.00;;;;;;6092002;23;20889;-81
2022/09/19 12:53:47;;;;;;;0.00;0.00;;;27.30;21.00;;;;;;6115054;23;20488;-80
2022/09/19 12:56:21;;;;;;;0.00;0.00;;;27.30;20.20;;;;;;6115279;23;20457;-81
2022/09/19 12:59:16;;;;;;;0.00;0.00;;;27.00;20.20;;;;;;6114697;23;20453;-80
2022/09/19 13:02:24;;;;;;;0.00;0.00;;;26.90;21.00;;;;;;6091335;23;20472;-80
2022/09/19 13:04:58;;;;;;;0.00;0.00;;;27.40;21.20;;;;;;6116186;23;20429;-80
2022/09/19 13:07:35;;;;;;;0.10;0.00;;;27.40;20.80;;;;;;6117578;23;20385;-80
2022/09/19 13:10:17;;;;;;;0.00;0.00;;;27.20;21.20;;;;;;6091438;23;20397;-81
2022/09/19 13:12:57;;;;;;;0.00;0.00;;;27.60;20.90;;;;;;6091528;23;20402;-81
2022/09/19 13:15:28;;;;;;;0.00;0.00;;;27.40;21.60;;;;;;6117263;23;20722;-80
2022/09/19 13:23:35;;;;;;;0.00;0.00;;;27.10;19.90;;;;;;6095208;23;20718;-80
2022/09/19 13:26:16;;;;;;;0.00;0.00;;;27.60;20.80;;;;;;6116577;23;20468;-80
2022/09/19 13:28:55;;;;;;;0.10;0.00;;;28.00;21.60;;;;;;6093431;23;20398;-80
2022/09/19 13:31:32;;;;;;;0.10;0.00;;;28.20;20.70;;;;;;6116900;23;20400;-80
2022/09/19 13:33:59;;;;;;;0.00;0.00;;;27.90;20.80;;;;;;6118938;23;20695;-80
2022/09/19 13:36:26;;;;;;;0.00;0.00;;;27.90;20.20;;;;;;6096850;23;20381;-81
2022/09/19 13:39:03;;;;;;;0.10;0.00;;;28.10;20.20;;;;;;6094483;23;20863;-81
2022/09/19 13:41:42;;;;;;;0.10;0.00;;;28.00;20.00;;;;;;6094190;23;20711;-81
2022/09/19 13:44:39;;;;;;;0.00;0.00;;;26.80;20.00;;;;;;6093406;23;20469;-80
2022/09/19 13:47:39;;;;;;;0.00;0.00;;;27.10;21.40;;;;;;6092190;23;20894;-81
2022/09/19 13:50:31;;;;;;;0.00;0.00;;;27.40;21.00;;;;;;6063670;23;20726;-81
2022/09/19 13:53:02;;;;;;;0.00;0.00;;;27.60;21.10;;;;;;6095845;23;20690;-81